Time;durP1;ratioP1;P1;durP2;ratioP2;P2;SDS_P1;SDS_P2;PMS_P1;PMS_P2;Temp;Humidity;BMP_temperature;BMP_pressure;BME280_temperature;BME280_humidity;BME280_pressure;Samples;Min_cycle;Max_cycle;Signal;HPM_P1;HPM_P2
2024/01/02 00:00:17;;;;;;;6.00;1.30;;;7.30;1.00;;;;;;7377624;19;20007;-69
2024/01/02 00:02:47;;;;;;;3.15;0.82;;;7.30;1.00;;;;;;7379085;19;20017;-69
2024/01/02 00:05:20;;;;;;;3.80;1.48;;;7.30;1.00;;;;;;7377937;19;20022;-69
2024/01/02 00:07:50;;;;;;;4.28;0.90;;;7.30;1.00;;;;;;7379127;19;20002;-70
2024/01/02 00:10:20;;;;;;;2.75;1.00;;;7.30;1.00;;;;;;7377294;19;20012;-69
2024/01/02 00:12:48;;;;;;;5.43;1.17;;;7.30;1.00;;;;;;7379104;19;20049;-71
2024/01/02 00:15:18;;;;;;;2.38;1.10;;;7.20;1.00;;;;;;7377529;19;20677;-69
2024/01/02 00:17:48;;;;;;;3.92;1.42;;;7.20;1.00;;;;;;7379301;19;20021;-70
2024/01/02 00:20:21;;;;;;;3.42;1.10;;;7.20;1.00;;;;;;7376736;19;20434;-69
2024/01/02 00:22:51;;;;;;;4.05;1.17;;;7.30;1.00;;;;;;7378037;19;20007;-69
2024/01/02 00:25:22;;;;;;;2.90;0.80;;;7.30;1.00;;;;;;7375699;19;20471;-69
2024/01/02 00:27:52;;;;;;;3.38;0.80;;;7.30;1.00;;;;;;7380797;19;20482;-70
2024/01/02 00:30:23;;;;;;;2.60;1.00;;;7.30;1.00;;;;;;7378308;19;20021;-70
2024/01/02 00:32:53;;;;;;;2.53;0.82;;;7.30;1.00;;;;;;7381570;19;20097;-70
2024/01/02 00:35:26;;;;;;;4.68;1.00;;;7.30;1.00;;;;;;7381566;19;20006;-69
2024/01/02 00:37:56;;;;;;;3.33;0.90;;;7.30;1.00;;;;;;7380203;19;20016;-70
2024/01/02 00:40:26;;;;;;;6.32;1.45;;;7.20;1.00;;;;;;7380513;19;20006;-70
2024/01/02 00:42:56;;;;;;;2.35;0.85;;;7.30;1.00;;;;;;7381538;19;20039;-70
2024/01/02 00:45:26;;;;;;;4.35;1.00;;;7.20;1.00;;;;;;7380612;19;20010;-69
2024/01/02 00:47:56;;;;;;;2.88;0.88;;;7.20;1.00;;;;;;7380184;19;20029;-69
2024/01/02 00:50:29;;;;;;;2.83;0.90;;;7.20;1.00;;;;;;7380047;19;20057;-72
2024/01/02 00:53:03;;;;;;;3.05;0.65;;;7.20;1.00;;;;;;7381004;19;20096;-71
2024/01/02 00:55:34;;;;;;;3.72;0.98;;;7.20;1.00;;;;;;7379989;19;20450;-69
2024/01/02 00:58:04;;;;;;;5.15;1.20;;;7.20;1.00;;;;;;7379308;19;20010;-69
2024/01/02 01:00:35;;;;;;;4.15;0.90;;;7.20;1.00;;;;;;7378189;19;20011;-70
2024/01/02 01:03:05;;;;;;;1.98;0.88;;;7.20;1.00;;;;;;7377609;19;20024;-69
2024/01/02 01:05:38;;;;;;;3.35;1.15;;;7.20;1.00;;;;;;7378612;19;20034;-69
2024/01/02 01:08:08;;;;;;;4.35;0.70;;;7.20;1.00;;;;;;7380131;19;20390;-70
2024/01/02 01:10:38;;;;;;;2.67;0.70;;;7.20;1.00;;;;;;7382113;19;20011;-70
2024/01/02 01:13:08;;;;;;;2.35;0.85;;;7.20;1.00;;;;;;7378278;19;20006;-70
2024/01/02 01:15:39;;;;;;;3.15;0.82;;;7.20;1.00;;;;;;7375995;19;20076;-69
2024/01/02 01:18:09;;;;;;;3.85;1.10;;;7.20;1.00;;;;;;7377427;19;20013;-70
2024/01/02 01:20:43;;;;;;;5.85;1.55;;;7.20;1.00;;;;;;7379919;19;20413;-69
2024/01/02 01:23:13;;;;;;;3.33;1.08;;;7.20;1.00;;;;;;7378453;19;20031;-69
2024/01/02 01:25:43;;;;;;;1.50;0.60;;;7.20;1.00;;;;;;7377493;19;20091;-69
2024/01/02 01:28:13;;;;;;;2.75;0.98;;;7.20;1.00;;;;;;7379227;19;20007;-69
2024/01/02 01:30:44;;;;;;;1.88;0.70;;;7.20;1.00;;;;;;7378964;19;20011;-70
2024/01/02 01:33:14;;;;;;;1.15;0.55;;;7.20;1.00;;;;;;7378994;19;20018;-70
2024/01/02 01:35:47;;;;;;;4.13;0.90;;;7.20;1.00;;;;;;7378273;19;20011;-70
2024/01/02 01:38:16;;;;;;;2.95;0.60;;;7.20;1.00;;;;;;7377957;19;20013;-70
2024/01/02 01:40:47;;;;;;;3.22;0.80;;;7.20;1.00;;;;;;7377963;19;20367;-70
2024/01/02 01:43:17;;;;;;;3.08;0.95;;;7.20;1.00;;;;;;7376750;19;20021;-69
2024/01/02 01:45:47;;;;;;;1.70;0.80;;;7.20;1.00;;;;;;7377096;19;20014;-70
2024/01/02 01:48:18;;;;;;;1.48;0.70;;;7.20;1.00;;;;;;7377080;19;20017;-70
2024/01/02 01:50:51;;;;;;;2.15;0.70;;;7.20;1.00;;;;;;7378185;19;20597;-70
2024/01/02 01:53:21;;;;;;;2.38;0.70;;;7.20;1.00;;;;;;7378051;19;20010;-71
2024/01/02 01:55:52;;;;;;;2.83;0.82;;;7.20;1.00;;;;;;7377228;19;20373;-70
2024/01/02 01:58:22;;;;;;;1.35;0.75;;;7.20;1.00;;;;;;7377514;19;20051;-70
2024/01/02 02:00:52;;;;;;;1.00;0.60;;;7.20;1.00;;;;;;7379338;19;20018;-70
2024/01/02 02:03:25;;;;;;;2.90;0.70;;;7.30;1.00;;;;;;7378652;19;20014;-70
2024/01/02 02:05:57;;;;;;;3.75;0.80;;;7.20;1.00;;;;;;7379704;19;20532;-70
2024/01/02 02:08:27;;;;;;;3.38;0.82;;;7.30;1.00;;;;;;7377266;19;20010;-71
2024/01/02 02:10:58;;;;;;;2.60;1.00;;;7.30;1.00;;;;;;7378365;19;20074;-69
2024/01/02 02:13:28;;;;;;;1.48;0.60;;;7.30;1.00;;;;;;7376715;19;20010;-69
2024/01/02 02:16:01;;;;;;;2.35;0.95;;;7.30;1.00;;;;;;7376908;19;20006;-69
2024/01/02 02:18:31;;;;;;;4.40;1.63;;;7.30;1.00;;;;;;7377993;19;20015;-69
2024/01/02 02:21:04;;;;;;;2.72;0.70;;;7.30;1.00;;;;;;7376802;19;20015;-69
2024/01/02 02:23:37;;;;;;;1.40;0.50;;;7.40;1.00;;;;;;7377839;19;21122;-69
2024/01/02 02:26:07;;;;;;;2.70;0.65;;;7.40;1.00;;;;;;7376138;19;20035;-68
2024/01/02 02:28:37;;;;;;;1.15;0.70;;;7.40;1.00;;;;;;7376912;19;20018;-69
2024/01/02 02:31:07;;;;;;;3.15;0.80;;;7.40;1.00;;;;;;7376235;19;20015;-69
2024/01/02 02:33:37;;;;;;;2.00;0.77;;;7.40;1.00;;;;;;7377742;19;20010;-69
2024/01/02 02:36:09;;;;;;;1.77;0.70;;;7.40;1.00;;;;;;7374792;19;20535;-68
2024/01/02 02:38:42;;;;;;;1.88;0.50;;;7.40;1.00;;;;;;7376254;19;20010;-69
2024/01/02 02:41:12;;;;;;;2.03;0.60;;;7.40;1.00;;;;;;7372533;19;20019;-69
2024/01/02 02:43:42;;;;;;;0.88;0.50;;;7.50;1.00;;;;;;7377328;19;20002;-71
2024/01/02 02:46:12;;;;;;;0.77;0.50;;;7.50;1.00;;;;;;7376317;19;20083;-69
2024/01/02 02:48:42;;;;;;;1.10;0.80;;;7.40;1.00;;;;;;7377888;19;20010;-68
2024/01/02 02:51:13;;;;;;;2.67;0.63;;;7.50;1.00;;;;;;7378107;19;20010;-69
2024/01/02 02:53:45;;;;;;;1.85;0.50;;;7.50;1.00;;;;;;7375314;19;21094;-69
2024/01/02 02:56:17;;;;;;;0.73;0.40;;;7.50;1.00;;;;;;7377630;19;20023;-69
2024/01/02 02:58:47;;;;;;;2.15;0.60;;;7.50;1.00;;;;;;7374660;19;20831;-69
2024/01/02 03:01:24;;;;;;;0.68;0.38;;;7.50;1.00;;;;;;7376491;19;20023;-69
2024/01/02 03:03:56;;;;;;;1.33;0.50;;;7.60;1.00;;;;;;7376644;19;20014;-69
2024/01/02 03:06:26;;;;;;;2.35;0.60;;;7.50;1.00;;;;;;7375345;19;20475;-69
2024/01/02 03:08:58;;;;;;;0.88;0.57;;;7.50;1.00;;;;;;7374764;19;20468;-69
2024/01/02 03:11:28;;;;;;;1.27;0.50;;;7.50;1.00;;;;;;7376733;19;20014;-69
2024/01/02 03:13:58;;;;;;;2.20;0.57;;;7.50;1.00;;;;;;7374932;19;20022;-69
2024/01/02 03:16:28;;;;;;;1.30;0.63;;;7.60;1.00;;;;;;7375812;19;20067;-69
2024/01/02 03:18:58;;;;;;;1.65;0.60;;;7.60;1.00;;;;;;7374273;19;20010;-69
2024/01/02 03:21:30;;;;;;;1.73;0.60;;;7.50;1.00;;;;;;7374210;19;20428;-69
2024/01/02 03:24:02;;;;;;;0.60;0.43;;;7.40;1.00;;;;;;7376910;19;20494;-70
2024/01/02 03:26:32;;;;;;;1.45;0.57;;;7.40;1.00;;;;;;7374885;19;20023;-69
2024/01/02 03:29:04;;;;;;;1.20;0.50;;;7.30;1.00;;;;;;7374912;19;20010;-69
2024/01/02 03:31:34;;;;;;;1.33;0.70;;;7.30;1.00;;;;;;7375572;19;20011;-69
2024/01/02 03:34:05;;;;;;;0.80;0.50;;;7.20;1.00;;;;;;7375416;19;20015;-69
2024/01/02 03:36:35;;;;;;;0.90;0.68;;;7.20;1.00;;;;;;7375400;19;20017;-69
2024/01/02 03:39:08;;;;;;;0.88;0.60;;;7.10;1.00;;;;;;7374243;19;20025;-69
2024/01/02 03:41:38;;;;;;;1.73;0.88;;;7.10;1.00;;;;;;7375737;19;20370;-69
2024/01/02 03:44:08;;;;;;;0.85;0.50;;;7.00;1.00;;;;;;7375298;19;20025;-71
2024/01/02 03:46:38;;;;;;;2.00;0.70;;;6.90;1.00;;;;;;7375845;19;24048;-70
2024/01/02 03:49:08;;;;;;;3.85;0.70;;;6.90;1.00;;;;;;7375513;19;21756;-70
2024/01/02 03:51:39;;;;;;;1.63;0.70;;;6.90;1.00;;;;;;7376049;19;20033;-70
2024/01/02 03:54:15;;;;;;;1.58;0.50;;;6.90;1.00;;;;;;7375336;19;20018;-69
2024/01/02 03:56:46;;;;;;;1.98;0.70;;;6.90;1.00;;;;;;7375752;19;20010;-69
2024/01/02 03:59:16;;;;;;;3.35;1.10;;;6.90;1.00;;;;;;7375765;19;20013;-70
2024/01/02 04:01:47;;;;;;;2.33;1.48;;;6.90;1.00;;;;;;7370848;19;20010;-69
2024/01/02 04:04:17;;;;;;;2.45;0.60;;;6.90;1.00;;;;;;7375503;19;20010;-70
2024/01/02 04:06:47;;;;;;;1.00;0.80;;;6.90;1.00;;;;;;7380146;19;20010;-69
2024/01/02 04:09:20;;;;;;;0.70;0.40;;;6.90;1.00;;;;;;7383784;19;20007;-69
2024/01/02 04:11:50;;;;;;;1.67;0.68;;;6.90;1.00;;;;;;7382940;19;20018;-70
2024/01/02 04:14:20;;;;;;;1.08;0.63;;;6.80;1.00;;;;;;7382513;19;20029;-70
2024/01/02 04:16:50;;;;;;;0.95;0.40;;;6.80;1.00;;;;;;7381422;19;20010;-69
2024/01/02 04:19:21;;;;;;;0.77;0.52;;;6.80;1.00;;;;;;7382988;19;20011;-70
2024/01/02 04:21:52;;;;;;;1.27;0.50;;;6.70;1.00;;;;;;7374323;19;20011;-70
2024/01/02 04:24:24;;;;;;;2.22;0.50;;;6.80;1.00;;;;;;7381371;19;20367;-70
2024/01/02 04:26:55;;;;;;;0.32;0.30;;;6.80;1.00;;;;;;7383656;19;20015;-70
2024/01/02 04:29:25;;;;;;;0.95;0.50;;;6.70;1.00;;;;;;7381274;19;20689;-70
2024/01/02 04:31:55;;;;;;;1.45;0.50;;;6.80;1.00;;;;;;7377646;19;20017;-71
2024/01/02 04:34:25;;;;;;;0.50;0.40;;;6.70;1.00;;;;;;7381346;19;20018;-70
2024/01/02 04:36:55;;;;;;;2.03;0.40;;;6.80;1.00;;;;;;7381444;19;20010;-69
2024/01/02 04:39:28;;;;;;;3.28;0.50;;;6.80;1.00;;;;;;7381023;19;20498;-70
2024/01/02 04:41:58;;;;;;;0.57;0.32;;;6.80;1.00;;;;;;7381285;19;20086;-70
2024/01/02 04:44:28;;;;;;;1.40;0.93;;;6.80;1.00;;;;;;7380489;19;20447;-70
2024/01/02 04:46:58;;;;;;;1.15;0.50;;;6.80;1.00;;;;;;7380018;19;20014;-70
2024/01/02 04:49:28;;;;;;;0.60;0.30;;;6.70;1.00;;;;;;7379521;19;20003;-69
2024/01/02 04:51:58;;;;;;;2.17;0.40;;;6.80;1.00;;;;;;7379811;19;20341;-71
2024/01/02 04:54:32;;;;;;;1.00;0.30;;;6.70;1.00;;;;;;7380661;19;20471;-69
2024/01/02 04:57:02;;;;;;;0.52;0.40;;;6.80;1.00;;;;;;7379000;19;20002;-69
2024/01/02 04:59:32;;;;;;;0.98;0.30;;;6.70;1.00;;;;;;7380591;19;20010;-70
2024/01/02 05:02:02;;;;;;;0.75;0.50;;;6.80;1.00;;;;;;7380918;19;20006;-70
2024/01/02 05:04:33;;;;;;;1.13;0.30;;;6.80;1.00;;;;;;7378888;19;20039;-70
2024/01/02 05:07:03;;;;;;;1.38;0.40;;;6.70;1.00;;;;;;7380663;19;20014;-69
2024/01/02 05:09:36;;;;;;;0.80;0.30;;;6.80;1.00;;;;;;7380053;19;20014;-70
2024/01/02 05:12:07;;;;;;;1.10;0.40;;;6.70;1.00;;;;;;7380137;19;20018;-70
2024/01/02 05:14:37;;;;;;;0.73;0.55;;;6.70;1.00;;;;;;7380736;19;20018;-69
2024/01/02 05:17:09;;;;;;;1.10;0.35;;;6.80;1.00;;;;;;7379469;19;20389;-69
2024/01/02 05:19:39;;;;;;;1.02;0.50;;;6.80;1.00;;;;;;7380736;19;20478;-70
2024/01/02 05:22:09;;;;;;;1.85;0.40;;;6.70;1.00;;;;;;7379144;19;20017;-70
2024/01/02 05:24:42;;;;;;;0.50;0.40;;;6.70;1.00;;;;;;7380559;19;20006;-70
2024/01/02 05:27:12;;;;;;;1.02;0.40;;;6.80;1.00;;;;;;7379839;19;20014;-68
2024/01/02 05:29:42;;;;;;;1.38;0.60;;;6.80;1.00;;;;;;7379170;19;20811;-69
2024/01/02 05:32:12;;;;;;;1.45;0.55;;;6.80;1.00;;;;;;7378735;19;20010;-69
2024/01/02 05:34:42;;;;;;;2.00;0.40;;;6.80;1.00;;;;;;7377743;19;20014;-70
2024/01/02 05:37:12;;;;;;;1.52;0.50;;;6.70;1.00;;;;;;7379138;19;20027;-71
2024/01/02 05:39:45;;;;;;;0.73;0.40;;;6.70;1.00;;;;;;7378942;19;20388;-69
2024/01/02 05:42:15;;;;;;;1.20;0.52;;;6.80;1.00;;;;;;7379355;19;20688;-71
2024/01/02 05:44:45;;;;;;;0.70;0.55;;;6.80;1.00;;;;;;7377711;19;20018;-68
2024/01/02 05:47:15;;;;;;;1.83;0.60;;;6.80;1.00;;;;;;7379109;19;20138;-71
2024/01/02 05:49:45;;;;;;;0.60;0.40;;;6.80;1.00;;;;;;7377796;19;20025;-71
2024/01/02 05:52:15;;;;;;;0.98;0.60;;;6.90;1.00;;;;;;7378396;19;20022;-71
2024/01/02 05:54:48;;;;;;;0.52;0.40;;;6.80;1.00;;;;;;7378780;19;20628;-71
2024/01/02 05:57:18;;;;;;;1.67;0.50;;;6.90;1.00;;;;;;7378606;19;20014;-71
2024/01/02 05:59:48;;;;;;;1.17;0.52;;;6.90;1.00;;;;;;7378807;19;20029;-71
2024/01/02 06:02:18;;;;;;;1.75;0.60;;;6.90;1.00;;;;;;7378956;19;20011;-70
2024/01/02 06:04:48;;;;;;;2.95;0.98;;;6.90;1.00;;;;;;7378725;19;20014;-70
2024/01/02 06:07:18;;;;;;;2.08;0.75;;;6.90;1.00;;;;;;7379142;19;20006;-70
2024/01/02 06:09:50;;;;;;;2.55;0.70;;;6.90;1.00;;;;;;7379773;19;20348;-71
2024/01/02 06:12:21;;;;;;;1.15;0.70;;;6.90;1.00;;;;;;7381319;19;20006;-70
2024/01/02 06:14:51;;;;;;;0.50;0.40;;;6.90;1.00;;;;;;7379249;19;20010;-70
2024/01/02 06:17:21;;;;;;;1.95;0.50;;;6.90;1.00;;;;;;7379901;19;20013;-70
2024/01/02 06:19:51;;;;;;;1.77;0.85;;;6.90;1.00;;;;;;7380055;19;20022;-70
2024/01/02 06:22:22;;;;;;;1.02;0.50;;;6.90;1.00;;;;;;7380541;19;20019;-70
2024/01/02 06:24:54;;;;;;;0.70;0.50;;;6.90;1.00;;;;;;7377436;19;20010;-70
2024/01/02 06:27:24;;;;;;;0.75;0.45;;;6.90;1.00;;;;;;7379697;19;20018;-71
2024/01/02 06:29:54;;;;;;;1.75;0.55;;;6.90;1.00;;;;;;7374507;19;20011;-71
2024/01/02 06:32:25;;;;;;;1.25;0.40;;;6.90;1.00;;;;;;7378627;19;20080;-70
2024/01/02 06:34:55;;;;;;;2.53;0.50;;;7.00;1.00;;;;;;7378873;19;20013;-70
2024/01/02 06:37:25;;;;;;;1.20;0.60;;;7.00;1.00;;;;;;7378601;19;20017;-70
2024/01/02 06:39:58;;;;;;;1.55;0.98;;;7.00;1.00;;;;;;7377483;19;20449;-70
2024/01/02 06:42:29;;;;;;;2.65;1.27;;;7.10;1.00;;;;;;7379615;19;20420;-70
2024/01/02 06:44:59;;;;;;;1.25;0.70;;;7.10;1.00;;;;;;7375159;19;20006;-71
2024/01/02 06:47:29;;;;;;;1.15;0.57;;;7.10;1.00;;;;;;7380457;19;20035;-70
2024/01/02 06:49:59;;;;;;;0.93;0.50;;;7.10;1.00;;;;;;7377014;19;20006;-70
2024/01/02 06:52:30;;;;;;;0.60;0.50;;;7.10;1.00;;;;;;7378664;19;20013;-69
2024/01/02 06:55:04;;;;;;;0.70;0.43;;;7.10;1.00;;;;;;7378374;19;20081;-71
2024/01/02 06:57:34;;;;;;;1.17;0.50;;;7.10;1.00;;;;;;7375805;19;20463;-69
2024/01/02 07:00:05;;;;;;;0.50;0.35;;;7.10;1.00;;;;;;7375942;19;20019;-71
2024/01/02 07:02:36;;;;;;;1.00;0.70;;;7.10;1.00;;;;;;7378175;19;20007;-69
2024/01/02 07:05:07;;;;;;;4.40;1.80;;;7.20;1.00;;;;;;7376990;19;20032;-69
2024/01/02 07:07:37;;;;;;;3.17;0.60;;;7.20;1.00;;;;;;7377597;19;20014;-69
2024/01/02 07:10:10;;;;;;;1.05;0.40;;;7.20;1.00;;;;;;7375591;19;20494;-71
2024/01/02 07:12:40;;;;;;;0.70;0.50;;;7.30;1.00;;;;;;7377185;19;20014;-69
2024/01/02 07:15:11;;;;;;;1.88;0.75;;;7.40;1.00;;;;;;7375605;19;20230;-69
2024/01/02 07:17:43;;;;;;;1.73;0.57;;;7.40;1.00;;;;;;7375902;19;20085;-70
2024/01/02 07:20:14;;;;;;;2.10;0.50;;;7.40;1.00;;;;;;7375634;19;20062;-70
2024/01/02 07:22:44;;;;;;;1.20;0.60;;;7.40;1.00;;;;;;7376991;19;20459;-70
2024/01/02 07:25:17;;;;;;;0.63;0.50;;;7.50;1.00;;;;;;7374692;19;20078;-70
2024/01/02 07:27:47;;;;;;;0.85;0.60;;;7.50;1.00;;;;;;7376259;19;20024;-70
2024/01/02 07:30:17;;;;;;;0.88;0.40;;;7.60;1.00;;;;;;7374459;19;20007;-70
2024/01/02 07:32:48;;;;;;;0.50;0.30;;;7.60;1.00;;;;;;7376106;19;20022;-70
2024/01/02 07:35:18;;;;;;;0.50;0.40;;;7.60;1.00;;;;;;7374719;19;20015;-70
2024/01/02 07:37:49;;;;;;;0.50;0.40;;;7.60;1.00;;;;;;7375894;19;20015;-71
2024/01/02 07:40:22;;;;;;;1.30;0.50;;;7.70;1.00;;;;;;7376643;19;20013;-70
2024/01/02 07:42:52;;;;;;;2.05;0.55;;;7.70;1.00;;;;;;7382763;19;20018;-70
2024/01/02 07:45:22;;;;;;;0.60;0.40;;;7.80;1.00;;;;;;7382370;19;20018;-69
2024/01/02 07:47:52;;;;;;;0.75;0.45;;;7.90;1.00;;;;;;7382618;19;20540;-70
2024/01/02 07:50:22;;;;;;;1.35;0.65;;;7.90;1.00;;;;;;7381737;19;20859;-70
2024/01/02 07:52:54;;;;;;;1.25;0.65;;;7.90;1.00;;;;;;7382594;19;20725;-69
2024/01/02 07:55:27;;;;;;;1.10;0.52;;;7.90;1.00;;;;;;7381275;19;20025;-70
2024/01/02 07:57:57;;;;;;;0.38;0.30;;;7.90;1.00;;;;;;7381426;19;20015;-69
2024/01/02 08:00:27;;;;;;;0.65;0.28;;;8.00;1.00;;;;;;7381155;19;20042;-69
2024/01/02 08:02:57;;;;;;;0.60;0.25;;;8.00;1.00;;;;;;7382031;19;20436;-69
2024/01/02 08:05:28;;;;;;;0.50;0.43;;;8.10;1.00;;;;;;7382021;19;20010;-70
2024/01/02 08:07:58;;;;;;;1.27;0.30;;;8.10;1.00;;;;;;7381877;19;20456;-70
2024/01/02 08:10:32;;;;;;;0.35;0.20;;;8.20;1.00;;;;;;7381999;19;20014;-70
2024/01/02 08:13:02;;;;;;;0.20;0.20;;;8.30;1.00;;;;;;7381380;19;20018;-69
2024/01/02 08:15:33;;;;;;;0.20;0.20;;;8.30;1.00;;;;;;7381879;19;20443;-70
2024/01/02 08:18:11;;;;;;;0.20;0.10;;;8.40;1.00;;;;;;7379399;19;20010;-69
2024/01/02 08:20:41;;;;;;;0.50;0.40;;;8.40;1.00;;;;;;7381626;19;20010;-71
2024/01/02 08:23:12;;;;;;;2.38;0.57;;;8.40;1.00;;;;;;7379891;19;20017;-70
2024/01/02 08:25:45;;;;;;;0.60;0.22;;;8.40;1.00;;;;;;7380074;19;20015;-70
2024/01/02 08:28:15;;;;;;;0.35;0.20;;;8.50;1.00;;;;;;7380727;19;20482;-70
2024/01/02 08:30:45;;;;;;;0.73;0.40;;;8.50;1.00;;;;;;7380724;19;20018;-71
2024/01/02 08:33:15;;;;;;;0.47;0.28;;;8.50;1.00;;;;;;7380947;19;20041;-70
2024/01/02 08:35:45;;;;;;;0.40;0.30;;;8.50;1.00;;;;;;7381535;19;20019;-70
2024/01/02 08:38:15;;;;;;;0.20;0.20;;;8.60;1.00;;;;;;7379891;19;20079;-71
2024/01/02 08:40:48;;;;;;;0.52;0.20;;;8.60;1.00;;;;;;7381214;19;20030;-71
2024/01/02 08:43:18;;;;;;;0.47;0.30;;;8.60;1.00;;;;;;7380976;19;20017;-70
2024/01/02 08:45:48;;;;;;;0.30;0.25;;;8.60;1.00;;;;;;7380553;19;20014;-70
2024/01/02 08:48:18;;;;;;;0.50;0.20;;;8.60;1.00;;;;;;7378004;19;20412;-69
2024/01/02 08:50:48;;;;;;;0.88;0.30;;;8.70;1.00;;;;;;7380242;19;20014;-70
2024/01/02 08:53:19;;;;;;;0.40;0.20;;;8.70;1.00;;;;;;7378230;19;20078;-70
2024/01/02 08:55:51;;;;;;;0.50;0.20;;;8.70;1.00;;;;;;7379464;19;20010;-69
2024/01/02 08:58:21;;;;;;;0.77;0.32;;;8.70;1.00;;;;;;7377107;19;20013;-70
2024/01/02 09:00:51;;;;;;;1.42;0.38;;;8.70;1.00;;;;;;7381453;19;20025;-70
2024/01/02 09:03:21;;;;;;;0.47;0.20;;;8.70;1.00;;;;;;7379072;19;20181;-69
2024/01/02 09:05:51;;;;;;;0.50;0.20;;;8.70;1.00;;;;;;7379235;19;20011;-70
2024/01/02 09:08:21;;;;;;;0.20;0.20;;;8.80;1.00;;;;;;7379189;19;20058;-70
2024/01/02 09:10:54;;;;;;;0.40;0.20;;;8.80;1.00;;;;;;7381440;19;20013;-70
2024/01/02 09:13:24;;;;;;;0.63;0.25;;;8.80;1.00;;;;;;7379448;19;20014;-69
2024/01/02 09:15:54;;;;;;;0.40;0.30;;;8.90;1.00;;;;;;7379973;19;20024;-70
2024/01/02 09:18:25;;;;;;;0.80;0.30;;;8.90;1.00;;;;;;7378903;19;20350;-70
2024/01/02 09:20:55;;;;;;;0.30;0.30;;;8.80;1.00;;;;;;7377535;19;20018;-70
2024/01/02 09:23:25;;;;;;;0.40;0.20;;;8.90;1.00;;;;;;7379118;19;20010;-69
2024/01/02 09:26:01;;;;;;;2.75;1.60;;;8.90;1.00;;;;;;7378315;19;20490;-69
2024/01/02 09:28:33;;;;;;;1.02;0.43;;;9.00;1.00;;;;;;7378406;19;20014;-68
2024/01/02 09:31:03;;;;;;;0.50;0.32;;;9.10;1.00;;;;;;7378568;19;20013;-69
2024/01/02 09:33:33;;;;;;;1.00;0.38;;;9.10;1.00;;;;;;7378762;19;20022;-68
2024/01/02 09:36:03;;;;;;;2.00;1.15;;;9.10;1.00;;;;;;7379508;19;20015;-69
2024/01/02 09:38:33;;;;;;;1.15;0.40;;;9.10;1.00;;;;;;7378204;19;20010;-68
2024/01/02 09:41:22;;;;;;;1.08;0.60;;;9.10;1.00;;;;;;7378660;19;20010;-69
2024/01/02 09:44:01;;;;;;;0.73;0.30;;;9.20;1.00;;;;;;7376861;19;20018;-69
2024/01/02 09:46:38;;;;;;;0.40;0.20;;;9.20;1.00;;;;;;7378259;19;20034;-68
2024/01/02 09:49:26;;;;;;;0.40;0.20;;;9.20;1.00;;;;;;7377576;19;20019;-69
2024/01/02 09:52:16;;;;;;;0.40;0.20;;;9.30;1.00;;;;;;6866735;19;2004844;-68
2024/01/02 09:54:53;;;;;;;0.20;0.20;;;9.30;1.00;;;;;;7375798;19;20074;-70
2024/01/02 09:57:32;;;;;;;0.17;0.17;;;9.30;1.00;;;;;;7378209;19;20018;-69
2024/01/02 10:00:07;;;;;;;0.43;0.20;;;9.30;1.00;;;;;;7377813;19;20379;-69
2024/01/02 10:03:10;;;;;;;0.30;0.20;;;9.30;1.00;;;;;;7377627;19;20013;-69
2024/01/02 10:05:53;;;;;;;0.20;0.20;;;9.40;1.00;;;;;;6864987;19;2003931;-69
2024/01/02 10:08:45;;;;;;;0.40;0.20;;;9.40;1.00;;;;;;7375421;19;20015;-69
2024/01/02 10:11:27;;;;;;;0.85;0.35;;;9.40;1.00;;;;;;7377606;19;20463;-70
2024/01/02 10:14:04;;;;;;;0.50;0.30;;;9.40;1.00;;;;;;6865443;19;2004885;-69
2024/01/02 10:16:40;;;;;;;0.60;0.40;;;9.40;1.00;;;;;;7377175;19;20014;-69
2024/01/02 10:19:20;;;;;;;0.68;0.30;;;9.40;1.00;;;;;;7375520;19;20011;-69
2024/01/02 10:22:00;;;;;;;0.65;0.20;;;9.50;1.00;;;;;;7376412;19;20415;-68
2024/01/02 10:24:41;;;;;;;0.43;0.30;;;9.50;1.00;;;;;;7377857;19;20011;-70
2024/01/02 10:27:18;;;;;;;0.55;0.22;;;9.60;1.00;;;;;;7377642;19;20002;-69
2024/01/02 10:30:01;;;;;;;1.45;0.35;;;9.60;1.00;;;;;;7374923;19;20014;-71
2024/01/02 10:32:42;;;;;;;1.00;0.70;;;9.60;1.00;;;;;;7377155;19;20014;-69
2024/01/02 10:35:17;;;;;;;0.45;0.38;;;9.70;1.00;;;;;;7377276;19;20744;-69
2024/01/02 10:37:59;;;;;;;0.95;0.45;;;9.70;1.00;;;;;;7375533;19;20015;-69
2024/01/02 10:40:30;;;;;;;0.47;0.20;;;9.70;1.00;;;;;;7375669;19;20015;-70
2024/01/02 10:43:11;;;;;;;0.30;0.20;;;9.70;1.00;;;;;;7375695;19;20002;-70
2024/01/02 10:45:51;;;;;;;0.98;0.40;;;9.70;1.00;;;;;;7376248;19;20073;-69
2024/01/02 10:48:38;;;;;;;0.40;0.30;;;9.70;1.00;;;;;;7372486;19;20019;-70
2024/01/02 10:51:10;;;;;;;0.20;0.10;;;9.80;1.00;;;;;;7377156;19;20347;-70
2024/01/02 10:53:50;;;;;;;0.88;0.40;;;9.80;1.00;;;;;;7376594;19;20002;-69
2024/01/02 10:56:35;;;;;;;0.55;0.20;;;9.80;1.00;;;;;;7374317;19;20006;-70
2024/01/02 10:59:15;;;;;;;0.20;0.20;;;9.80;1.00;;;;;;7376719;19;20015;-69
2024/01/02 11:01:50;;;;;;;0.60;0.20;;;9.90;1.00;;;;;;7375184;19;20376;-69
2024/01/02 11:04:27;;;;;;;1.85;0.47;;;9.90;1.00;;;;;;7374390;19;20006;-70
2024/01/02 11:07:02;;;;;;;0.20;0.10;;;9.90;1.00;;;;;;7374562;19;20006;-69
2024/01/02 11:09:39;;;;;;;0.60;0.50;;;9.90;1.00;;;;;;7373642;19;20010;-69
2024/01/02 11:12:12;;;;;;;2.17;1.70;;;10.00;1.00;;;;;;7375671;19;20011;-69
2024/01/02 11:14:46;;;;;;;0.20;0.20;;;10.00;1.00;;;;;;7374627;19;20010;-69
2024/01/02 11:17:21;;;;;;;0.85;0.40;;;10.00;1.00;;;;;;7375963;19;20039;-68
2024/01/02 11:19:59;;;;;;;0.50;0.40;;;10.10;1.00;;;;;;7374397;19;20018;-69
2024/01/02 11:22:37;;;;;;;0.90;0.50;;;10.10;1.00;;;;;;7375840;19;20014;-69
2024/01/02 11:25:12;;;;;;;0.40;0.28;;;10.10;1.00;;;;;;7376054;19;20011;-69
2024/01/02 11:27:55;;;;;;;0.40;0.30;;;10.20;1.00;;;;;;7373721;19;20010;-69
2024/01/02 11:30:29;;;;;;;0.70;0.30;;;10.20;1.00;;;;;;7376111;19;20012;-70
2024/01/02 11:33:10;;;;;;;0.40;0.30;;;10.20;1.00;;;;;;7375727;19;20017;-69
2024/01/02 11:35:47;;;;;;;0.28;0.20;;;10.30;1.00;;;;;;7375124;19;20039;-68
2024/01/02 11:38:22;;;;;;;0.30;0.30;;;10.30;1.00;;;;;;7375863;19;20031;-68
2024/01/02 11:41:05;;;;;;;0.57;0.30;;;10.30;1.00;;;;;;7373677;19;20379;-69
2024/01/02 11:43:48;;;;;;;0.73;0.30;;;10.30;1.00;;;;;;7375579;19;20043;-69
2024/01/02 11:46:19;;;;;;;0.77;0.20;;;10.30;1.00;;;;;;7376739;19;20010;-70
2024/01/02 11:49:01;;;;;;;0.80;0.30;;;10.30;1.00;;;;;;7374510;19;20017;-69
2024/01/02 11:51:31;;;;;;;0.50;0.30;;;10.40;1.00;;;;;;7372142;19;20011;-68
2024/01/02 11:54:25;;;;;;;0.20;0.20;;;10.40;1.00;;;;;;7374789;19;20010;-69
2024/01/02 11:56:56;;;;;;;0.55;0.20;;;10.40;1.00;;;;;;7372310;19;20090;-70
2024/01/02 11:59:37;;;;;;;0.17;0.10;;;10.40;1.00;;;;;;7373129;19;20006;-69
2024/01/02 12:02:12;;;;;;;0.13;0.10;;;10.40;1.00;;;;;;7373139;19;20015;-69
2024/01/02 12:05:03;;;;;;;0.30;0.30;;;10.40;1.00;;;;;;7373065;19;20014;-69
2024/01/02 12:07:37;;;;;;;1.15;0.40;;;10.40;1.00;;;;;;7370746;19;20047;-70
2024/01/02 12:10:08;;;;;;;0.60;0.45;;;10.40;1.00;;;;;;7373205;19;20042;-69
2024/01/02 12:12:50;;;;;;;0.43;0.30;;;10.50;1.00;;;;;;7374296;19;20429;-71
2024/01/02 12:15:27;;;;;;;0.68;0.30;;;10.50;1.00;;;;;;7373456;19;20013;-69
2024/01/02 12:18:01;;;;;;;0.17;0.10;;;10.50;1.00;;;;;;7369271;19;20006;-69
2024/01/02 12:20:42;;;;;;;0.40;0.30;;;10.50;1.00;;;;;;7372588;19;20003;-69
2024/01/02 12:23:13;;;;;;;0.22;0.20;;;10.50;1.00;;;;;;7373349;19;20026;-69
2024/01/02 12:25:45;;;;;;;0.40;0.20;;;10.50;1.00;;;;;;7374513;19;20020;-69
2024/01/02 12:28:16;;;;;;;0.80;0.40;;;10.50;1.00;;;;;;7381088;19;20030;-70
2024/01/02 12:30:58;;;;;;;0.30;0.20;;;10.50;1.00;;;;;;7380839;19;20011;-69
2024/01/02 12:33:34;;;;;;;0.20;0.20;;;10.50;1.00;;;;;;7382378;19;20010;-70
2024/01/02 12:36:21;;;;;;;0.20;0.20;;;10.50;1.00;;;;;;7378198;19;20039;-70
2024/01/02 12:38:53;;;;;;;1.67;1.02;;;10.50;1.00;;;;;;7379389;19;20031;-70
2024/01/02 12:41:27;;;;;;;0.60;0.40;;;10.50;1.00;;;;;;7381116;19;19998;-69
2024/01/02 12:43:59;;;;;;;0.10;0.10;;;10.50;1.00;;;;;;7382279;19;20473;-70
2024/01/02 12:46:40;;;;;;;0.65;0.28;;;10.50;1.00;;;;;;7379592;19;20025;-69
2024/01/02 12:49:12;;;;;;;0.40;0.30;;;10.50;1.00;;;;;;7377976;19;20011;-70
2024/01/02 12:51:49;;;;;;;1.15;0.73;;;10.50;1.00;;;;;;7382037;19;20017;-69
2024/01/02 12:54:22;;;;;;;2.03;0.40;;;10.60;1.00;;;;;;7379579;19;20367;-70
2024/01/02 12:56:55;;;;;;;0.20;0.20;;;10.60;1.00;;;;;;7381079;19;20014;-70
2024/01/02 12:59:31;;;;;;;0.40;0.20;;;10.50;1.00;;;;;;7379550;19;20006;-70
2024/01/02 13:02:04;;;;;;;0.20;0.20;;;10.50;1.00;;;;;;7381364;19;20006;-70
2024/01/02 13:04:35;;;;;;;0.20;0.20;;;10.60;1.00;;;;;;7378688;19;20006;-69
2024/01/02 13:07:11;;;;;;;0.43;0.22;;;10.50;1.00;;;;;;7380218;19;20341;-69
2024/01/02 13:09:42;;;;;;;0.22;0.20;;;10.50;1.00;;;;;;7375470;19;20021;-70
2024/01/02 13:12:14;;;;;;;0.47;0.17;;;10.50;1.00;;;;;;7379893;19;20026;-70
2024/01/02 13:14:44;;;;;;;0.40;0.20;;;10.50;1.00;;;;;;7377862;19;20011;-70
2024/01/02 13:17:16;;;;;;;0.50;0.20;;;10.50;1.00;;;;;;7378943;19;20446;-70
2024/01/02 13:19:47;;;;;;;0.68;0.30;;;10.50;1.00;;;;;;7379234;19;20009;-68
2024/01/02 13:22:24;;;;;;;0.60;0.35;;;10.50;1.00;;;;;;7379986;19;20021;-69
2024/01/02 13:24:54;;;;;;;0.50;0.20;;;10.50;1.00;;;;;;7379101;19;20010;-69
2024/01/02 13:27:30;;;;;;;0.43;0.10;;;10.50;1.00;;;;;;7379101;19;20017;-69
2024/01/02 13:30:00;;;;;;;0.50;0.28;;;10.50;1.00;;;;;;7379348;19;20010;-70
2024/01/02 13:32:31;;;;;;;0.75;0.35;;;10.50;1.00;;;;;;7379180;19;20014;-69